Time;durP1;ratioP1;P1;durP2;ratioP2;P2;SDS_P1;SDS_P2;PMS_P1;PMS_P2;Temp;Humidity;BMP_temperature;BMP_pressure;BME280_temperature;BME280_humidity;BME280_pressure;Samples;Min_cycle;Max_cycle;Signal;HPM_P1;HPM_P2
2022/08/01 00:01:56;;;;;;;3.83;1.90;;;;;;;;;;5078559;28;20506;-69
2022/08/01 00:04:42;;;;;;;4.80;2.03;;;;;;;;;;5081387;28;20020;-59
2022/08/01 00:07:27;;;;;;;6.55;2.10;;;;;;;;;;5085517;28;20035;-59
2022/08/01 00:10:14;;;;;;;3.15;2.00;;;;;;;;;;5084803;28;20020;-59
2022/08/01 00:12:59;;;;;;;5.55;2.70;;;;;;;;;;5075108;28;20028;-60
2022/08/01 00:15:45;;;;;;;4.15;2.35;;;;;;;;;;5079849;28;20162;-58
2022/08/01 00:18:30;;;;;;;5.95;2.60;;;;;;;;;;5073416;28;20073;-58
2022/08/01 00:21:16;;;;;;;3.90;2.75;;;;;;;;;;5077774;28;20143;-59
2022/08/01 00:24:02;;;;;;;3.90;2.25;;;;;;;;;;5085602;28;20092;-62
2022/08/01 00:26:47;;;;;;;4.55;2.88;;;;;;;;;;5079996;28;20026;-59
2022/08/01 00:29:33;;;;;;;3.47;2.20;;;;;;;;;;5083083;28;20479;-60
2022/08/01 00:32:19;;;;;;;3.05;2.35;;;;;;;;;;5080409;28;20498;-58
2022/08/01 00:35:04;;;;;;;5.22;2.28;;;;;;;;;;5076336;28;20505;-58
2022/08/01 00:37:51;;;;;;;3.72;2.40;;;;;;;;;;5081449;28;20104;-58
2022/08/01 00:40:36;;;;;;;2.95;2.10;;;;;;;;;;5076150;28;20035;-58
2022/08/01 00:43:22;;;;;;;2.63;1.90;;;;;;;;;;5087892;28;20097;-62
2022/08/01 00:46:08;;;;;;;3.38;2.15;;;;;;;;;;5075689;28;20020;-70
2022/08/01 00:48:54;;;;;;;3.05;2.22;;;;;;;;;;5078047;28;20032;-70
2022/08/01 00:51:40;;;;;;;2.78;2.15;;;;;;;;;;5058280;28;20045;-69
2022/08/01 00:54:26;;;;;;;3.17;2.08;;;;;;;;;;5065577;28;20048;-70
2022/08/01 00:57:11;;;;;;;3.88;2.13;;;;;;;;;;5081363;28;20031;-69
2022/08/01 00:59:57;;;;;;;4.00;2.08;;;;;;;;;;5072419;28;20028;-59
2022/08/01 01:02:43;;;;;;;3.97;2.03;;;;;;;;;;5080244;28;20024;-58
2022/08/01 01:05:31;;;;;;;3.13;2.20;;;;;;;;;;5075874;28;20038;-60
2022/08/01 01:08:19;;;;;;;4.70;2.38;;;;;;;;;;5087883;28;20364;-58
2022/08/01 01:11:09;;;;;;;3.55;2.40;;;;;;;;;;5069389;28;20029;-59
2022/08/01 01:14:01;;;;;;;6.88;2.75;;;;;;;;;;5083889;28;20028;-58
2022/08/01 01:16:47;;;;;;;4.45;2.00;;;;;;;;;;5088455;28;20533;-59
2022/08/01 01:19:36;;;;;;;3.60;2.13;;;;;;;;;;5085487;28;20035;-59
2022/08/01 01:22:22;;;;;;;;;;;;;;;;;;5086094;28;20020;-58
2022/08/01 01:25:14;;;;;;;3.05;2.50;;;;;;;;;;5094037;28;19922;-58
2022/08/01 01:28:05;;;;;;;2.90;2.30;;;;;;;;;;5082008;28;20020;-58
2022/08/01 01:30:53;;;;;;;3.75;2.42;;;;;;;;;;5085956;28;20028;-60
2022/08/01 01:33:40;;;;;;;5.32;3.00;;;;;;;;;;5079247;28;20540;-59
2022/08/01 01:36:26;;;;;;;3.30;2.20;;;;;;;;;;5083831;28;20042;-62
2022/08/01 01:39:13;;;;;;;2.92;2.42;;;;;;;;;;5082110;28;20023;-58
2022/08/01 01:41:59;;;;;;;3.42;2.05;;;;;;;;;;5076888;28;20034;-70
2022/08/01 01:44:45;;;;;;;2.35;1.92;;;;;;;;;;5075006;28;20021;-70
2022/08/01 01:47:32;;;;;;;5.68;2.45;;;;;;;;;;5093510;28;20024;-69
2022/08/01 01:50:20;;;;;;;5.07;2.92;;;;;;;;;;5086372;28;20052;-69
2022/08/01 01:53:07;;;;;;;3.65;2.13;;;;;;;;;;5078885;28;20040;-69
2022/08/01 01:55:54;;;;;;;4.00;2.45;;;;;;;;;;5093712;28;20494;-69
2022/08/01 01:58:40;;;;;;;3.85;2.38;;;;;;;;;;5085336;28;20025;-57
2022/08/01 02:01:28;;;;;;;2.88;2.45;;;;;;;;;;5083387;28;20031;-58
2022/08/01 02:04:13;;;;;;;4.13;2.00;;;;;;;;;;5087437;28;20020;-59
2022/08/01 02:07:00;;;;;;;4.07;2.55;;;;;;;;;;5087613;28;20032;-58
2022/08/01 02:09:46;;;;;;;5.00;2.50;;;;;;;;;;5080312;28;20074;-59
2022/08/01 02:12:34;;;;;;;3.95;2.25;;;;;;;;;;5080010;28;20024;-58
2022/08/01 02:15:20;;;;;;;3.05;2.15;;;;;;;;;;5087545;28;20041;-60
2022/08/01 02:18:07;;;;;;;3.85;2.53;;;;;;;;;;5079790;28;20043;-60
2022/08/01 02:20:54;;;;;;;3.38;2.30;;;;;;;;;;5081676;28;20024;-64
2022/08/01 02:23:40;;;;;;;4.00;2.55;;;;;;;;;;5082920;28;20074;-60
2022/08/01 02:26:25;;;;;;;4.28;2.42;;;;;;;;;;5076279;28;20402;-59
2022/08/01 02:29:13;;;;;;;3.22;2.53;;;;;;;;;;5078901;28;20028;-59
2022/08/01 02:32:00;;;;;;;3.55;2.60;;;;;;;;;;5064409;28;20028;-61
2022/08/01 02:34:46;;;;;;;3.70;2.28;;;;;;;;;;5079785;28;20369;-59
2022/08/01 02:37:33;;;;;;;2.97;2.60;;;;;;;;;;5079729;28;20108;-63
2022/08/01 02:40:19;;;;;;;3.92;2.67;;;;;;;;;;5083736;28;20036;-59
2022/08/01 02:43:05;;;;;;;4.03;2.55;;;;;;;;;;5096681;28;20020;-58
2022/08/01 02:45:53;;;;;;;4.43;2.33;;;;;;;;;;5080929;28;20040;-58
2022/08/01 02:48:40;;;;;;;3.03;2.45;;;;;;;;;;5086925;28;20063;-62
2022/08/01 02:51:26;;;;;;;3.97;2.65;;;;;;;;;;5083337;28;20059;-58
2022/08/01 02:54:12;;;;;;;3.58;2.10;;;;;;;;;;5085364;28;20043;-58
2022/08/01 02:57:00;;;;;;;5.72;2.63;;;;;;;;;;5085295;28;20069;-59
2022/08/01 02:59:46;;;;;;;4.03;2.58;;;;;;;;;;5076668;28;20025;-59
2022/08/01 03:02:32;;;;;;;4.38;2.65;;;;;;;;;;5060240;28;20058;-58
2022/08/01 03:05:19;;;;;;;3.92;2.53;;;;;;;;;;5084069;28;20364;-59
2022/08/01 03:08:05;;;;;;;4.03;2.38;;;;;;;;;;5079314;28;20078;-59
2022/08/01 03:10:52;;;;;;;3.60;2.60;;;;;;;;;;5088981;28;20028;-58
2022/08/01 03:13:38;;;;;;;3.10;2.65;;;;;;;;;;5090201;28;20028;-62
2022/08/01 03:16:26;;;;;;;3.13;2.50;;;;;;;;;;5080540;28;20032;-64
2022/08/01 03:19:13;;;;;;;2.80;2.45;;;;;;;;;;5090025;28;20065;-63
2022/08/01 03:21:59;;;;;;;3.10;2.45;;;;;;;;;;5087507;27;20028;-62
2022/08/01 03:24:47;;;;;;;3.08;2.50;;;;;;;;;;5081018;28;20023;-63
2022/08/01 03:27:32;;;;;;;9.90;2.78;;;;;;;;;;5072795;28;20099;-63
2022/08/01 03:30:18;;;;;;;5.72;3.03;;;;;;;;;;5085200;28;20020;-59
2022/08/01 03:33:03;;;;;;;3.50;2.60;;;;;;;;;;5071910;28;20073;-62
2022/08/01 03:35:53;;;;;;;5.32;2.70;;;;;;;;;;5066013;28;20040;-62
2022/08/01 03:38:38;;;;;;;;;;;;;;;;;;5074378;28;20107;-62
2022/08/01 03:41:26;;;;;;;4.78;2.67;;;;;;;;;;5082510;28;20023;-62
2022/08/01 03:44:16;;;;;;;3.25;2.90;;;;;;;;;;5076627;28;20016;-61
2022/08/01 03:47:03;;;;;;;4.32;2.50;;;;;;;;;;5099096;28;20024;-58
2022/08/01 03:49:50;;;;;;;3.83;2.83;;;;;;;;;;5079648;28;20101;-62
2022/08/01 03:52:37;;;;;;;10.02;3.33;;;;;;;;;;5079352;28;20024;-63
2022/08/01 03:55:24;;;;;;;4.45;2.90;;;;;;;;;;5082757;28;20039;-65
2022/08/01 03:58:10;;;;;;;3.53;2.78;;;;;;;;;;5085587;28;20124;-62
2022/08/01 04:00:56;;;;;;;3.58;2.83;;;;;;;;;;5081271;28;20487;-63
2022/08/01 04:03:42;;;;;;;6.68;3.40;;;;;;;;;;5080111;28;20523;-64
2022/08/01 04:06:29;;;;;;;4.40;2.92;;;;;;;;;;5092562;28;20383;-58
2022/08/01 04:09:14;;;;;;;6.43;3.78;;;;;;;;;;5083537;28;20028;-61
2022/08/01 04:12:00;;;;;;;4.93;2.90;;;;;;;;;;5071224;28;20830;-62
2022/08/01 04:14:46;;;;;;;6.60;2.80;;;;;;;;;;5077940;28;20032;-60
2022/08/01 04:17:31;;;;;;;4.30;2.80;;;;;;;;;;5062219;28;20016;-60
2022/08/01 04:20:17;;;;;;;4.55;2.95;;;;;;;;;;5103720;28;20443;-60
2022/08/01 04:23:03;;;;;;;5.22;3.00;;;;;;;;;;5079576;28;20024;-61
2022/08/01 04:25:50;;;;;;;4.07;2.70;;;;;;;;;;5082877;28;20033;-62
2022/08/01 04:28:36;;;;;;;4.43;3.10;;;;;;;;;;5082995;28;20023;-61
2022/08/01 04:31:25;;;;;;;3.20;2.50;;;;;;;;;;5069199;28;20036;-61
2022/08/01 04:34:12;;;;;;;4.35;2.58;;;;;;;;;;5085201;28;20394;-62
2022/08/01 04:37:00;;;;;;;5.13;2.80;;;;;;;;;;5089226;28;20053;-62
2022/08/01 04:39:46;;;;;;;5.57;2.67;;;;;;;;;;5075042;28;20020;-63
2022/08/01 04:42:32;;;;;;;4.20;2.88;;;;;;;;;;5082684;28;20498;-60
2022/08/01 04:45:18;;;;;;;3.33;2.70;;;;;;;;;;5078725;28;20483;-65
2022/08/01 04:48:08;;;;;;;3.95;2.83;;;;;;;;;;5090706;28;20028;-64
2022/08/01 04:50:54;;;;;;;4.10;2.65;;;;;;;;;;5089784;28;20449;-63
2022/08/01 04:53:40;;;;;;;4.43;2.40;;;;;;;;;;5077034;28;20032;-65
2022/08/01 04:56:26;;;;;;;3.03;2.38;;;;;;;;;;5075194;28;20115;-63
2022/08/01 05:02:17;;;;;;;4.38;2.75;;;;;;;;;;5098272;28;20028;-62
2022/08/01 05:05:05;;;;;;;4.20;2.67;;;;;;;;;;5080836;28;20059;-59
2022/08/01 05:07:51;;;;;;;3.25;2.50;;;;;;;;;;5083617;28;20115;-60
2022/08/01 05:10:37;;;;;;;5.13;2.85;;;;;;;;;;5082088;28;20020;-59
2022/08/01 05:13:22;;;;;;;3.55;2.67;;;;;;;;;;5082416;28;20479;-59
2022/08/01 05:16:08;;;;;;;7.32;2.80;;;;;;;;;;5077596;28;20036;-59
2022/08/01 05:18:53;;;;;;;4.30;2.92;;;;;;;;;;5081110;28;20037;-63
2022/08/01 05:21:39;;;;;;;5.93;3.08;;;;;;;;;;5084826;28;20067;-58
2022/08/01 05:24:25;;;;;;;5.43;3.03;;;;;;;;;;5082360;28;20020;-62
2022/08/01 05:27:10;;;;;;;9.35;3.13;;;;;;;;;;5086300;28;20032;-59
2022/08/01 05:29:56;;;;;;;5.28;2.70;;;;;;;;;;5081414;28;20123;-60
2022/08/01 05:32:41;;;;;;;3.35;2.50;;;;;;;;;;5092175;28;20486;-61
2022/08/01 05:35:27;;;;;;;7.32;2.90;;;;;;;;;;5078360;28;20036;-61
2022/08/01 05:38:12;;;;;;;5.40;2.92;;;;;;;;;;5094161;28;20110;-59
2022/08/01 05:40:58;;;;;;;2.83;2.13;;;;;;;;;;5093656;28;20055;-62
2022/08/01 05:43:44;;;;;;;6.00;2.25;;;;;;;;;;5081572;28;20157;-63
2022/08/01 05:46:30;;;;;;;2.97;2.30;;;;;;;;;;5076653;28;20023;-62
2022/08/01 05:49:16;;;;;;;3.05;2.40;;;;;;;;;;5081641;28;20395;-62
2022/08/01 05:52:01;;;;;;;5.80;2.58;;;;;;;;;;5079148;28;20047;-64
2022/08/01 05:54:47;;;;;;;5.45;2.20;;;;;;;;;;5078832;28;20038;-59
2022/08/01 05:57:32;;;;;;;5.28;2.35;;;;;;;;;;5078174;28;20028;-60
2022/08/01 06:00:18;;;;;;;3.75;2.33;;;;;;;;;;5085971;28;20385;-57
2022/08/01 06:03:04;;;;;;;2.60;1.98;;;;;;;;;;5089740;28;20027;-58
2022/08/01 06:05:51;;;;;;;2.83;2.00;;;;;;;;;;5085070;28;20483;-59
2022/08/01 06:08:37;;;;;;;3.38;2.08;;;;;;;;;;5085258;28;20016;-59
2022/08/01 06:11:22;;;;;;;4.93;2.28;;;;;;;;;;5085528;28;20021;-61
2022/08/01 06:14:08;;;;;;;3.08;1.90;;;;;;;;;;5092087;28;20111;-61
2022/08/01 06:16:53;;;;;;;1.73;1.50;;;;;;;;;;5088418;28;20107;-60
2022/08/01 06:19:39;;;;;;;5.00;1.92;;;;;;;;;;5089119;28;20024;-62
2022/08/01 06:22:25;;;;;;;4.68;1.60;;;;;;;;;;5090409;28;20049;-61
2022/08/01 06:25:10;;;;;;;3.20;1.80;;;;;;;;;;5084549;28;20020;-61
2022/08/01 06:27:56;;;;;;;2.88;1.77;;;;;;;;;;5091808;28;20109;-61
2022/08/01 06:30:42;;;;;;;1.95;1.45;;;;;;;;;;5089200;28;20116;-77
2022/08/01 06:33:27;;;;;;;3.17;1.63;;;;;;;;;;5074878;28;20467;-65
2022/08/01 06:36:13;;;;;;;3.58;1.55;;;;;;;;;;5085326;28;20035;-61
2022/08/01 06:38:59;;;;;;;2.15;1.50;;;;;;;;;;5073950;28;20380;-59
2022/08/01 06:41:46;;;;;;;2.80;1.17;;;;;;;;;;5080267;28;20024;-61
2022/08/01 06:44:32;;;;;;;1.58;1.23;;;;;;;;;;5093685;28;20039;-59
2022/08/01 06:47:17;;;;;;;2.72;1.35;;;;;;;;;;5060531;28;20016;-60
2022/08/01 06:50:04;;;;;;;2.92;1.88;;;;;;;;;;5092235;28;20457;-60
2022/08/01 06:52:49;;;;;;;1.63;1.30;;;;;;;;;;5088012;28;20027;-71
2022/08/01 06:55:35;;;;;;;4.65;1.38;;;;;;;;;;5086719;28;20033;-70
2022/08/01 06:58:20;;;;;;;2.13;1.20;;;;;;;;;;5082179;28;20047;-73
2022/08/01 07:01:07;;;;;;;1.92;1.70;;;;;;;;;;5094532;28;20475;-70
2022/08/01 07:03:52;;;;;;;2.17;1.58;;;;;;;;;;5076132;28;20028;-71
2022/08/01 07:06:38;;;;;;;2.22;1.33;;;;;;;;;;5081657;28;20027;-73
2022/08/01 07:09:23;;;;;;;2.38;1.08;;;;;;;;;;5092857;28;20032;-74
2022/08/01 07:12:09;;;;;;;1.05;0.95;;;;;;;;;;5089918;28;20038;-72
2022/08/01 07:14:54;;;;;;;1.30;1.20;;;;;;;;;;5086677;28;20140;-71
2022/08/01 07:17:41;;;;;;;3.42;2.10;;;;;;;;;;5094908;28;20020;-72
2022/08/01 07:20:26;;;;;;;3.30;1.17;;;;;;;;;;5082786;28;20024;-74
2022/08/01 07:23:12;;;;;;;2.20;1.38;;;;;;;;;;5092163;28;20024;-73
2022/08/01 07:25:58;;;;;;;1.90;1.35;;;;;;;;;;5087055;28;20035;-73
2022/08/01 07:28:44;;;;;;;1.73;1.20;;;;;;;;;;5065880;28;20100;-79
2022/08/01 07:31:30;;;;;;;2.20;1.20;;;;;;;;;;5075588;28;20438;-77
2022/08/01 07:34:15;;;;;;;3.08;1.13;;;;;;;;;;5088815;28;20036;-78
2022/08/01 07:37:01;;;;;;;1.55;1.38;;;;;;;;;;5073500;28;20024;-80
2022/08/01 07:39:46;;;;;;;3.00;1.48;;;;;;;;;;5070518;28;20056;-79
2022/08/01 07:42:32;;;;;;;1.45;1.27;;;;;;;;;;5076238;28;20110;-79
2022/08/01 07:45:18;;;;;;;5.18;1.20;;;;;;;;;;5076853;28;20024;-77
2022/08/01 07:48:04;;;;;;;2.05;1.50;;;;;;;;;;5103303;28;20022;-80
2022/08/01 07:50:50;;;;;;;2.63;1.50;;;;;;;;;;5090213;28;20090;-83
2022/08/01 07:53:36;;;;;;;3.60;2.20;;;;;;;;;;5091123;28;20063;-84
2022/08/01 07:56:23;;;;;;;3.00;1.80;;;;;;;;;;5085722;28;20059;-82
2022/08/01 07:59:09;;;;;;;2.33;1.77;;;;;;;;;;5082324;28;20017;-77
2022/08/01 08:01:54;;;;;;;1.75;1.65;;;;;;;;;;5088382;28;20082;-83
2022/08/01 08:04:40;;;;;;;4.72;1.80;;;;;;;;;;5090349;28;20020;-74
2022/08/01 08:07:26;;;;;;;2.78;1.75;;;;;;;;;;5077242;28;20024;-79
2022/08/01 08:10:11;;;;;;;3.30;2.15;;;;;;;;;;5077790;28;20031;-79
2022/08/01 08:12:57;;;;;;;2.90;1.98;;;;;;;;;;5099967;28;20024;-80
2022/08/01 08:15:43;;;;;;;3.72;1.88;;;;;;;;;;5077734;28;20036;-80
2022/08/01 08:18:28;;;;;;;3.00;1.92;;;;;;;;;;5077999;28;20020;-80
2022/08/01 08:21:14;;;;;;;4.57;2.13;;;;;;;;;;5084305;28;20035;-75
2022/08/01 08:27:04;;;;;;;2.33;2.00;;;;;;;;;;5085702;28;20514;-82
2022/08/01 08:29:49;;;;;;;3.30;2.42;;;;;;;;;;5041272;28;20389;-75
2022/08/01 08:32:35;;;;;;;3.53;2.20;;;;;;;;;;5061754;28;20056;-77
2022/08/01 08:35:21;;;;;;;3.10;2.33;;;;;;;;;;5047606;28;20052;-76
2022/08/01 08:38:07;;;;;;;2.90;2.10;;;;;;;;;;5064470;28;20029;-83
2022/08/01 08:40:53;;;;;;;5.72;2.35;;;;;;;;;;5033513;28;20037;-74
2022/08/01 08:43:38;;;;;;;5.00;2.20;;;;;;;;;;5027229;28;20041;-76
2022/08/01 08:46:26;;;;;;;3.13;2.33;;;;;;;;;;5028448;28;20075;-75
2022/08/01 08:49:14;;;;;;;3.15;2.33;;;;;;;;;;5041512;28;20484;-74
2022/08/01 08:52:01;;;;;;;3.37;2.00;;;;;;;;;;5025551;28;20056;-78
2022/08/01 08:54:47;;;;;;;3.35;1.98;;;;;;;;;;5014463;28;20500;-77
2022/08/01 08:57:33;;;;;;;3.03;2.40;;;;;;;;;;5011127;28;20014;-80
2022/08/01 09:00:18;;;;;;;4.10;2.75;;;;;;;;;;5025227;28;20026;-79
2022/08/01 09:03:04;;;;;;;3.97;2.55;;;;;;;;;;5028561;28;20112;-76
2022/08/01 09:05:50;;;;;;;4.80;2.42;;;;;;;;;;5011279;28;20018;-77
2022/08/01 09:08:36;;;;;;;3.33;2.55;;;;;;;;;;5051604;28;20036;-76
2022/08/01 09:11:22;;;;;;;3.70;2.80;;;;;;;;;;5042053;28;20028;-79
2022/08/01 09:14:22;;;;;;;5.43;2.70;;;;;;;;;;5057328;28;20024;-83
2022/08/01 09:17:10;;;;;;;5.95;2.40;;;;;;;;;;5066295;28;20020;-73
2022/08/01 09:19:55;;;;;;;7.15;2.97;;;;;;;;;;5061992;28;20025;-76
2022/08/01 09:22:41;;;;;;;5.53;3.15;;;;;;;;;;5064494;28;20028;-74
2022/08/01 09:25:32;;;;;;;5.93;3.20;;;;;;;;;;5069554;28;20090;-73
2022/08/01 09:28:26;;;;;;;8.35;3.58;;;;;;;;;;5066952;28;20112;-73
2022/08/01 09:31:13;;;;;;;5.30;3.22;;;;;;;;;;5065602;28;20391;-76
2022/08/01 09:34:02;;;;;;;5.55;3.72;;;;;;;;;;5049663;28;20024;-73
2022/08/01 09:36:53;;;;;;;5.88;3.15;;;;;;;;;;5055815;28;20101;-76
2022/08/01 09:39:42;;;;;;;5.45;3.20;;;;;;;;;;5060878;28;20121;-77
2022/08/01 09:42:28;;;;;;;5.20;3.78;;;;;;;;;;5073046;28;20028;-78
2022/08/01 09:45:40;;;;;;;6.68;4.00;;;;;;;;;;5065852;28;20106;-76
2022/08/01 09:48:27;;;;;;;6.43;4.63;;;;;;;;;;5078380;28;20115;-75
2022/08/01 09:51:26;;;;;;;7.82;4.70;;;;;;;;;;5065225;28;20044;-76
2022/08/01 09:54:12;;;;;;;8.85;4.65;;;;;;;;;;5073729;28;20027;-75
2022/08/01 09:57:16;;;;;;;6.32;4.50;;;;;;;;;;5073717;28;20021;-78
2022/08/01 10:00:03;;;;;;;6.80;4.15;;;;;;;;;;5046734;28;20025;-78
2022/08/01 10:02:48;;;;;;;5.53;4.35;;;;;;;;;;5059522;28;20587;-81
2022/08/01 10:05:35;;;;;;;7.63;4.65;;;;;;;;;;5070865;28;20021;-81
2022/08/01 10:08:23;;;;;;;6.53;4.75;;;;;;;;;;5080654;28;20024;-79
2022/08/01 10:11:09;;;;;;;5.70;4.60;;;;;;;;;;5065419;28;20100;-79
2022/08/01 10:13:56;;;;;;;8.15;4.75;;;;;;;;;;5071819;28;20067;-81
2022/08/01 10:16:42;;;;;;;5.45;4.18;;;;;;;;;;5071810;28;20031;-78
2022/08/01 10:19:29;;;;;;;6.65;4.18;;;;;;;;;;5079169;28;20044;-78
2022/08/01 10:22:16;;;;;;;5.68;3.72;;;;;;;;;;5069275;28;20383;-78
2022/08/01 10:25:03;;;;;;;6.35;4.00;;;;;;;;;;5074111;28;20544;-77
2022/08/01 10:27:49;;;;;;;6.82;3.70;;;;;;;;;;5057274;28;20395;-76
2022/08/01 10:30:35;;;;;;;4.32;3.63;;;;;;;;;;5073600;28;20013;-73
2022/08/01 10:33:21;;;;;;;5.07;3.10;;;;;;;;;;5068900;28;20023;-74
2022/08/01 10:36:08;;;;;;;5.63;3.38;;;;;;;;;;5047325;28;20025;-73
2022/08/01 10:38:54;;;;;;;5.20;3.50;;;;;;;;;;5080381;28;20103;-72
2022/08/01 10:41:40;;;;;;;3.40;3.08;;;;;;;;;;5060002;28;20340;-71
2022/08/01 10:44:26;;;;;;;3.78;2.95;;;;;;;;;;5046887;28;20525;-73
2022/08/01 10:47:14;;;;;;;4.30;3.22;;;;;;;;;;5067562;28;20398;-72
2022/08/01 10:49:59;;;;;;;4.55;3.08;;;;;;;;;;5067845;28;20052;-77
2022/08/01 10:53:05;;;;;;;5.70;2.90;;;;;;;;;;5064103;28;20063;-76
2022/08/01 10:55:58;;;;;;;3.50;2.78;;;;;;;;;;5074390;28;20059;-79
2022/08/01 10:58:45;;;;;;;3.60;3.05;;;;;;;;;;5085818;28;20107;-78
2022/08/01 11:01:34;;;;;;;4.10;2.65;;;;;;;;;;5086704;28;20044;-77
2022/08/01 11:04:20;;;;;;;2.80;2.25;;;;;;;;;;5068068;28;20054;-81
2022/08/01 11:07:06;;;;;;;3.13;2.63;;;;;;;;;;5090766;28;20020;-79
2022/08/01 11:10:08;;;;;;;4.80;2.88;;;;;;;;;;5081045;28;20262;-77
2022/08/01 11:12:54;;;;;;;4.10;2.90;;;;;;;;;;5068309;28;20035;-78
2022/08/01 11:15:40;;;;;;;3.22;2.90;;;;;;;;;;5091546;28;20028;-80
2022/08/01 11:18:26;;;;;;;5.68;3.00;;;;;;;;;;5077062;28;20025;-79
2022/08/01 11:21:13;;;;;;;3.65;2.72;;;;;;;;;;5076867;28;20096;-80
2022/08/01 11:23:58;;;;;;;3.65;2.90;;;;;;;;;;5063735;28;20554;-82
2022/08/01 11:27:04;;;;;;;4.75;3.15;;;;;;;;;;5076105;28;20047;-81
2022/08/01 11:30:19;;;;;;;3.20;2.75;;;;;;;;;;5075615;28;20090;-79
2022/08/01 11:33:06;;;;;;;3.58;2.80;;;;;;;;;;5074048;28;20028;-78
2022/08/01 11:36:10;;;;;;;3.75;2.83;;;;;;;;;;5085666;28;20116;-81
2022/08/01 11:39:05;;;;;;;3.58;2.63;;;;;;;;;;5077539;28;20493;-83
2022/08/01 11:41:52;;;;;;;3.38;2.20;;;;;;;;;;5097985;28;20110;-83
2022/08/01 11:44:50;;;;;;;4.78;2.20;;;;;;;;;;5069275;28;20490;-80
2022/08/01 11:47:46;;;;;;;2.78;2.47;;;;;;;;;;5094452;28;20028;-75
2022/08/01 11:50:33;;;;;;;4.65;2.33;;;;;;;;;;5074781;28;20035;-74
2022/08/01 11:53:19;;;;;;;3.05;2.60;;;;;;;;;;5090674;28;20036;-74
2022/08/01 11:56:05;;;;;;;2.55;2.10;;;;;;;;;;5090785;28;20086;-74
2022/08/01 11:58:58;;;;;;;4.25;2.28;;;;;;;;;;5086505;28;20024;-74
2022/08/01 12:01:43;;;;;;;3.13;2.25;;;;;;;;;;5063100;28;20024;-74
2022/08/01 12:05:02;;;;;;;4.47;2.38;;;;;;;;;;5071917;28;20161;-77
2022/08/01 12:07:49;;;;;;;4.23;2.57;;;;;;;;;;5043013;28;20498;-77
2022/08/01 12:10:37;;;;;;;2.78;2.22;;;;;;;;;;5077172;28;20115;-77
2022/08/01 12:13:23;;;;;;;5.28;2.28;;;;;;;;;;5072878;28;20020;-78
2022/08/01 12:16:10;;;;;;;3.28;2.45;;;;;;;;;;5081029;28;20032;-80
2022/08/01 12:18:55;;;;;;;3.22;2.10;;;;;;;;;;5072714;28;20489;-79
2022/08/01 12:21:41;;;;;;;3.95;2.80;;;;;;;;;;5087963;28;20024;-74
2022/08/01 12:24:26;;;;;;;4.53;2.10;;;;;;;;;;5089250;28;20115;-72
2022/08/01 12:27:22;;;;;;;6.10;2.70;;;;;;;;;;5089017;28;20416;-72
2022/08/01 12:30:10;;;;;;;5.20;2.53;;;;;;;;;;5088524;28;20024;-73
2022/08/01 12:32:56;;;;;;;3.65;2.20;;;;;;;;;;5073899;28;20506;-73
2022/08/01 12:35:41;;;;;;;2.40;1.88;;;;;;;;;;5090533;28;20020;-72
2022/08/01 12:38:29;;;;;;;3.83;2.10;;;;;;;;;;5089202;28;20511;-71
2022/08/01 12:41:15;;;;;;;2.42;1.73;;;;;;;;;;5091339;28;20089;-78
2022/08/01 12:44:01;;;;;;;2.95;2.35;;;;;;;;;;5079574;28;20503;-79
2022/08/01 12:46:46;;;;;;;2.70;2.30;;;;;;;;;;5077128;28;20020;-79
2022/08/01 12:49:33;;;;;;;3.35;2.70;;;;;;;;;;5073080;28;20465;-82
2022/08/01 12:52:22;;;;;;;4.72;2.50;;;;;;;;;;5079144;28;20013;-80
2022/08/01 12:55:09;;;;;;;3.95;2.53;;;;;;;;;;5072430;28;20028;-81
2022/08/01 12:58:08;;;;;;;4.00;2.60;;;;;;;;;;5083016;28;20025;-81
2022/08/01 13:01:03;;;;;;;2.80;2.40;;;;;;;;;;5084524;28;20510;-79
2022/08/01 13:03:59;;;;;;;4.82;1.90;;;;;;;;;;5064081;28;20032;-78
2022/08/01 13:06:45;;;;;;;2.00;1.67;;;;;;;;;;5060146;28;20013;-80
2022/08/01 13:09:32;;;;;;;3.05;2.22;;;;;;;;;;5063577;28;20101;-80
2022/08/01 13:12:17;;;;;;;2.38;2.10;;;;;;;;;;5078536;28;20410;-81
2022/08/01 13:15:19;;;;;;;2.97;1.52;;;;;;;;;;5096641;28;20368;-84
2022/08/01 13:18:23;;;;;;;3.00;2.13;;;;;;;;;;5068589;28;20286;-79
2022/08/01 13:21:10;;;;;;;4.68;2.17;;;;;;;;;;5091221;28;20056;-77
2022/08/01 13:24:10;;;;;;;2.95;2.00;;;;;;;;;;5092816;28;20107;-78
2022/08/01 13:27:00;;;;;;;8.55;3.30;;;;;;;;;;5096463;28;20386;-82
2022/08/01 13:29:47;;;;;;;7.40;2.80;;;;;;;;;;5079687;28;20016;-81
2022/08/01 13:32:32;;;;;;;4.18;2.70;;;;;;;;;;5077699;28;20027;-81
2022/08/01 13:35:19;;;;;;;5.90;2.58;;;;;;;;;;5095592;28;20031;-76
2022/08/01 13:38:05;;;;;;;5.70;2.40;;;;;;;;;;5091669;28;20387;-81
2022/08/01 13:40:57;;;;;;;3.92;2.20;;;;;;;;;;5077989;28;20032;-81
2022/08/01 13:43:42;;;;;;;7.47;3.50;;;;;;;;;;5087201;28;20067;-83
2022/08/01 13:46:28;;;;;;;6.43;2.60;;;;;;;;;;5086578;28;20036;-86
2022/08/01 13:49:14;;;;;;;3.15;1.75;;;;;;;;;;5078747;28;20027;-77
2022/08/01 13:52:00;;;;;;;2.78;1.80;;;;;;;;;;5098018;28;20033;-79
2022/08/01 13:54:45;;;;;;;2.47;1.92;;;;;;;;;;5092121;28;20510;-81
2022/08/01 13:57:31;;;;;;;3.47;1.90;;;;;;;;;;5092744;28;20024;-77
2022/08/01 14:00:17;;;;;;;5.45;2.63;;;;;;;;;;5087494;28;20029;-80
2022/08/01 14:03:02;;;;;;;4.95;2.30;;;;;;;;;;5076107;28;20440;-80
2022/08/01 14:05:48;;;;;;;4.10;2.45;;;;;;;;;;5085271;28;20051;-80
2022/08/01 14:08:34;;;;;;;2.75;2.20;;;;;;;;;;5103950;28;20028;-82
2022/08/01 14:11:20;;;;;;;4.75;2.50;;;;;;;;;;5095979;28;20020;-74
2022/08/01 14:14:05;;;;;;;2.80;1.80;;;;;;;;;;5091545;28;20016;-81
2022/08/01 14:16:51;;;;;;;4.40;2.08;;;;;;;;;;5090513;28;21155;-80
2022/08/01 14:19:37;;;;;;;4.05;2.08;;;;;;;;;;5086667;28;20043;-83
2022/08/01 14:22:23;;;;;;;4.05;2.42;;;;;;;;;;5100721;28;20016;-79
2022/08/01 14:25:09;;;;;;;2.55;2.20;;;;;;;;;;5072247;28;20410;-82
2022/08/01 14:27:54;;;;;;;4.35;2.30;;;;;;;;;;5090636;28;20027;-81
2022/08/01 14:30:42;;;;;;;2.53;1.80;;;;;;;;;;5065959;28;20392;-79
2022/08/01 14:33:28;;;;;;;3.97;2.13;;;;;;;;;;5089269;28;20395;-72
2022/08/01 14:36:14;;;;;;;3.03;2.28;;;;;;;;;;5081198;28;20024;-74
2022/08/01 14:38:59;;;;;;;2.90;2.03;;;;;;;;;;5093523;28;20025;-72
2022/08/01 14:41:45;;;;;;;4.47;2.30;;;;;;;;;;5093889;28;20372;-71
2022/08/01 14:44:31;;;;;;;9.68;2.58;;;;;;;;;;5076551;28;20021;-71
2022/08/01 14:47:16;;;;;;;3.55;2.17;;;;;;;;;;5088720;28;20052;-73
2022/08/01 14:50:03;;;;;;;4.35;2.25;;;;;;;;;;5103786;28;20044;-75
2022/08/01 14:52:48;;;;;;;5.45;1.88;;;;;;;;;;5074079;28;20126;-72
2022/08/01 14:55:34;;;;;;;5.40;2.22;;;;;;;;;;5099761;28;20122;-72
2022/08/01 14:58:19;;;;;;;4.55;2.00;;;;;;;;;;5094245;28;20024;-73
2022/08/01 15:01:05;;;;;;;3.40;2.15;;;;;;;;;;5092800;28;20028;-74
2022/08/01 15:03:51;;;;;;;3.95;2.20;;;;;;;;;;5090669;28;20497;-73
2022/08/01 15:06:36;;;;;;;2.42;1.80;;;;;;;;;;5092291;28;20051;-72
2022/08/01 15:09:23;;;;;;;7.28;2.33;;;;;;;;;;5098745;28;20038;-78
2022/08/01 15:12:08;;;;;;;2.45;2.00;;;;;;;;;;5082205;28;20020;-72
2022/08/01 15:14:54;;;;;;;3.97;2.10;;;;;;;;;;5077015;28;20546;-72
2022/08/01 15:17:39;;;;;;;3.15;2.38;;;;;;;;;;5092066;28;20096;-71
2022/08/01 15:20:26;;;;;;;4.30;2.47;;;;;;;;;;5061407;28;20498;-73
2022/08/01 15:23:12;;;;;;;3.05;1.83;;;;;;;;;;5083907;28;20111;-73
2022/08/01 15:25:57;;;;;;;3.55;2.10;;;;;;;;;;5078659;28;20024;-72
2022/08/01 15:28:43;;;;;;;5.72;1.80;;;;;;;;;;5091575;28;20056;-70
2022/08/01 15:31:29;;;;;;;2.60;2.17;;;;;;;;;;5077249;28;20032;-70
2022/08/01 15:34:14;;;;;;;3.67;2.30;;;;;;;;;;5101827;28;20429;-72
2022/08/01 15:37:00;;;;;;;4.38;2.17;;;;;;;;;;5076472;28;20036;-71
2022/08/01 15:39:46;;;;;;;4.75;3.03;;;;;;;;;;5076713;28;20016;-72
2022/08/01 15:42:32;;;;;;;4.25;2.53;;;;;;;;;;5091011;28;20436;-71
2022/08/01 15:45:18;;;;;;;4.78;2.20;;;;;;;;;;5101053;28;20505;-73
2022/08/01 15:48:04;;;;;;;3.08;2.05;;;;;;;;;;5075200;28;20031;-73
2022/08/01 15:50:50;;;;;;;2.22;1.75;;;;;;;;;;5092176;28;20067;-71
2022/08/01 15:53:35;;;;;;;3.55;1.90;;;;;;;;;;5089479;28;20031;-72
2022/08/01 15:56:21;;;;;;;6.32;2.08;;;;;;;;;;5091428;28;20429;-70
2022/08/01 15:59:07;;;;;;;2.95;2.05;;;;;;;;;;5083355;28;20056;-73
2022/08/01 16:01:52;;;;;;;2.45;1.58;;;;;;;;;;5086912;28;20147;-85
2022/08/01 16:04:38;;;;;;;4.40;1.75;;;;;;;;;;5084385;28;20024;-80
2022/08/01 16:07:23;;;;;;;9.68;2.08;;;;;;;;;;5090610;28;20306;-72
2022/08/01 16:10:09;;;;;;;4.68;1.77;;;;;;;;;;5094289;28;20031;-72
2022/08/01 16:12:55;;;;;;;3.72;1.95;;;;;;;;;;5084243;28;20035;-71
2022/08/01 16:15:40;;;;;;;7.50;1.63;;;;;;;;;;5069179;28;20043;-72
2022/08/01 16:18:26;;;;;;;4.82;1.55;;;;;;;;;;5073656;28;20024;-72
2022/08/01 16:21:11;;;;;;;1.95;1.42;;;;;;;;;;5079811;28;20089;-73
2022/08/01 16:23:57;;;;;;;8.85;1.77;;;;;;;;;;5074932;28;20024;-82
2022/08/01 16:26:43;;;;;;;3.72;1.70;;;;;;;;;;5090946;28;20399;-84
2022/08/01 16:29:30;;;;;;;4.25;1.92;;;;;;;;;;5090091;28;20498;-84
2022/08/01 16:32:16;;;;;;;4.50;1.60;;;;;;;;;;5089551;28;20028;-83
2022/08/01 16:35:01;;;;;;;3.65;1.45;;;;;;;;;;5082034;28;20355;-85
2022/08/01 16:37:47;;;;;;;3.33;1.77;;;;;;;;;;5086537;28;20388;-84
2022/08/01 16:40:33;;;;;;;3.47;1.50;;;;;;;;;;5085049;28;20020;-80
2022/08/01 16:43:18;;;;;;;1.98;1.50;;;;;;;;;;5056829;28;20035;-81
2022/08/01 16:46:05;;;;;;;1.70;1.42;;;;;;;;;;5077608;28;20064;-79
2022/08/01 16:48:51;;;;;;;2.47;1.50;;;;;;;;;;5062755;28;20545;-80